Terminal Aerodrome Forecast
Issued by NWS

Home | Current Version | Previous Version | Text Only | Print | Product List | Glossary On
Versions: 1 2 3 4 5 6 7 8 9 10 11 12 13 14 15 16 17 18 19 20 21 22 23 24 25 26 27 28 29 30 31 32 33 34 35 36 37 38 39 40 41
000
FTUS45 KBOU 200352 AAB
TAFBJC
TAF AMD
KBJC 200352Z 2004/2024 02005KT 3/4SM -SN BR BKN004 OVC007
      TEMPO 2004/2005 1/4SM +SN FZFG OVC004
     FM200530 35008KT 2SM -SN BR BKN004 OVC010
     FM201000 36010KT 5SM BR BKN006 OVC012
     FM201400 03005KT P6SM BKN020 OVC030
     FM201800 06007KT P6SM SCT025 OVC040=

USA.gov is the U.S. government's official web portal to all federal, state and local government web resources and services.